createdAt,value
2019-03-19T00:00:11.365Z,70.30
2019-03-19T00:02:40.673Z,70.30
2019-03-19T00:05:09.963Z,70.40
2019-03-19T00:07:39.306Z,70.30
2019-03-19T00:10:08.883Z,70.40
2019-03-19T00:12:38.295Z,70.30
2019-03-19T00:15:08.530Z,70.20
2019-03-19T00:17:37.809Z,70.40
2019-03-19T00:20:07.660Z,70.30
2019-03-19T00:22:36.949Z,70.20
2019-03-19T00:25:06.654Z,70.20
2019-03-19T00:27:36.019Z,70.40
2019-03-19T00:30:07.653Z,70.10
2019-03-19T00:32:36.963Z,70.10
2019-03-19T00:35:06.776Z,70.00
2019-03-19T00:37:36.117Z,70.10
2019-03-19T00:40:06.203Z,70.10
2019-03-19T00:42:35.480Z,70.20
2019-03-19T00:45:05.129Z,70.30
2019-03-19T00:47:34.481Z,70.40
2019-03-19T00:50:04.362Z,70.40
2019-03-19T00:52:33.726Z,70.60
2019-03-19T00:55:03.065Z,70.50
2019-03-19T00:57:32.418Z,70.50
2019-03-19T01:00:01.783Z,70.60
2019-03-19T01:02:31.118Z,70.50
2019-03-19T01:05:00.429Z,70.60
2019-03-19T01:07:29.719Z,70.80
2019-03-19T01:09:59.048Z,71.00
2019-03-19T01:12:28.349Z,70.70
2019-03-19T01:14:57.673Z,70.70
2019-03-19T01:17:27.017Z,70.80
2019-03-19T01:19:56.449Z,71.10
2019-03-19T01:22:25.732Z,71.10
2019-03-19T01:24:55.117Z,71.00
2019-03-19T01:27:24.426Z,71.20
2019-03-19T01:29:53.726Z,71.60
2019-03-19T01:32:23.113Z,72.00
2019-03-19T01:34:52.474Z,72.20
2019-03-19T01:37:21.843Z,72.10
2019-03-19T01:39:51.311Z,72.20
2019-03-19T01:42:20.584Z,72.20
2019-03-19T01:44:49.887Z,72.40
2019-03-19T01:47:19.210Z,72.10
2019-03-19T01:49:48.550Z,72.00
2019-03-19T01:52:17.866Z,71.80
2019-03-19T01:54:47.250Z,71.30
2019-03-19T01:57:16.578Z,71.30
2019-03-19T01:59:45.960Z,72.00
2019-03-19T02:02:15.289Z,72.50
2019-03-19T02:04:44.669Z,72.70
2019-03-19T02:07:14.200Z,72.90
2019-03-19T02:09:43.652Z,73.40
2019-03-19T02:12:12.985Z,73.90
2019-03-19T02:14:42.329Z,74.20
2019-03-19T02:17:12.745Z,74.40
2019-03-19T02:19:42.751Z,74.50
2019-03-19T02:22:12.143Z,74.60
2019-03-19T02:24:41.469Z,75.10
2019-03-19T02:27:10.764Z,75.10
2019-03-19T02:29:40.161Z,74.90
2019-03-19T02:32:09.507Z,74.90
2019-03-19T02:34:38.787Z,74.70
2019-03-19T02:37:08.130Z,74.20
2019-03-19T02:39:37.509Z,73.70
2019-03-19T02:42:06.871Z,73.30
2019-03-19T02:44:36.230Z,73.40
2019-03-19T02:47:05.970Z,73.40
2019-03-19T02:49:35.313Z,73.70
2019-03-19T02:52:04.743Z,73.80
2019-03-19T02:54:34.026Z,73.40
2019-03-19T02:57:03.362Z,73.20
2019-03-19T02:59:32.712Z,73.20
2019-03-19T03:02:02.135Z,73.10
2019-03-19T03:04:31.541Z,72.90
2019-03-19T03:07:00.902Z,72.70
2019-03-19T03:09:30.182Z,72.60
2019-03-19T03:11:59.596Z,72.70
2019-03-19T03:14:28.972Z,72.40
2019-03-19T03:16:58.409Z,72.20
2019-03-19T03:19:27.711Z,72.00
2019-03-19T03:21:57.070Z,71.90
2019-03-19T03:24:26.442Z,72.10
2019-03-19T03:26:55.849Z,72.20
2019-03-19T03:29:25.198Z,72.00
2019-03-19T03:31:54.658Z,71.90
2019-03-19T03:34:24.046Z,72.30
2019-03-19T03:36:53.327Z,72.10
2019-03-19T03:39:22.749Z,72.00
2019-03-19T03:41:52.108Z,72.20
2019-03-19T03:44:21.409Z,72.50
2019-03-19T03:46:50.815Z,72.70
2019-03-19T03:49:20.170Z,73.10
2019-03-19T03:51:49.578Z,73.10
2019-03-19T03:54:18.937Z,72.70
2019-03-19T03:57:01.415Z,72.90
2019-03-19T03:59:19.326Z,73.20
2019-03-19T04:01:48.691Z,73.60
2019-03-19T04:04:18.030Z,73.70
2019-03-19T04:06:47.445Z,73.70
2019-03-19T04:09:16.725Z,73.50
2019-03-19T04:11:46.071Z,73.40
2019-03-19T04:14:15.435Z,74.20
2019-03-19T04:16:44.799Z,73.60
2019-03-19T04:19:14.087Z,73.60
2019-03-19T04:21:43.542Z,73.50
2019-03-19T04:24:12.903Z,73.50
2019-03-19T04:26:42.237Z,73.30
2019-03-19T04:29:11.568Z,73.30
2019-03-19T04:31:41.017Z,73.30
2019-03-19T04:34:10.375Z,73.40
2019-03-19T04:36:39.729Z,73.30
2019-03-19T04:39:09.389Z,73.30
2019-03-19T04:41:38.685Z,73.40
2019-03-19T04:44:08.033Z,73.70
2019-03-19T04:46:37.400Z,73.70
2019-03-19T04:49:06.792Z,73.70
2019-03-19T04:51:36.084Z,74.00
2019-03-19T04:54:05.418Z,74.10
2019-03-19T04:56:34.830Z,75.00
2019-03-19T04:59:04.125Z,75.40
2019-03-19T05:01:33.494Z,75.40
2019-03-19T05:04:02.817Z,75.80
2019-03-19T05:06:32.297Z,75.80
2019-03-19T05:09:01.621Z,75.80
2019-03-19T05:11:30.942Z,75.80
2019-03-19T05:14:00.259Z,76.30
2019-03-19T05:16:29.588Z,76.70
2019-03-19T05:18:58.870Z,77.30
2019-03-19T05:21:28.215Z,77.90
2019-03-19T05:23:57.630Z,76.80
2019-03-19T05:26:26.977Z,76.50
2019-03-19T05:28:56.269Z,76.10
2019-03-19T05:31:25.568Z,76.00
2019-03-19T05:33:54.917Z,75.70
2019-03-19T05:36:24.282Z,75.60
2019-03-19T05:38:53.613Z,75.40
2019-03-19T05:41:22.937Z,75.70
2019-03-19T05:43:52.315Z,75.30
2019-03-19T05:46:21.685Z,75.60
2019-03-19T05:48:50.963Z,75.80
2019-03-19T05:51:20.314Z,75.60
2019-03-19T05:53:49.737Z,75.50
2019-03-19T05:56:19.064Z,75.90
2019-03-19T05:58:48.393Z,76.50
2019-03-19T06:01:17.679Z,77.30
2019-03-19T06:03:47.018Z,77.20
2019-03-19T06:06:16.405Z,77.50
2019-03-19T06:08:45.689Z,77.90
2019-03-19T06:11:15.657Z,77.80
2019-03-19T06:13:44.992Z,77.90
2019-03-19T06:16:14.321Z,77.80
2019-03-19T06:18:43.685Z,77.40
2019-03-19T06:21:13.105Z,77.20
2019-03-19T06:23:42.409Z,76.90
2019-03-19T06:26:11.717Z,76.40
2019-03-19T06:28:41.074Z,76.30
2019-03-19T06:31:10.434Z,75.90
2019-03-19T06:33:39.836Z,75.40
2019-03-19T06:36:10.145Z,75.40
2019-03-19T06:38:39.526Z,74.90
2019-03-19T06:41:08.917Z,74.30
2019-03-19T06:43:38.282Z,73.60
2019-03-19T06:46:07.621Z,73.70
2019-03-19T06:48:36.894Z,74.40
2019-03-19T06:51:06.233Z,73.70
2019-03-19T06:53:35.541Z,74.00
2019-03-19T06:56:04.916Z,73.70
2019-03-19T06:58:34.281Z,73.60
2019-03-19T07:01:03.685Z,73.40
2019-03-19T07:03:33.054Z,72.50
2019-03-19T07:06:02.377Z,72.40
2019-03-19T07:08:32.702Z,80.40
2019-03-19T07:11:02.062Z,71.40
2019-03-19T07:13:31.401Z,70.40
2019-03-19T07:16:00.823Z,70.80
2019-03-19T07:18:30.171Z,70.40
2019-03-19T07:20:59.520Z,71.30
2019-03-19T07:23:29.020Z,71.30
2019-03-19T07:25:58.405Z,72.00
2019-03-19T07:28:27.826Z,73.10
2019-03-19T07:30:58.214Z,72.70
2019-03-19T07:33:27.564Z,72.20
2019-03-19T07:35:57.013Z,71.30
2019-03-19T07:38:26.400Z,71.00
2019-03-19T07:40:55.826Z,69.50
2019-03-19T07:43:25.333Z,69.20
2019-03-19T07:45:54.690Z,68.60
2019-03-19T07:48:24.133Z,67.20
2019-03-19T07:50:53.672Z,66.00
2019-03-19T07:53:23.005Z,66.20
2019-03-19T07:55:53.486Z,65.80
2019-03-19T07:58:32.805Z,64.20
2019-03-19T08:00:54.715Z,64.90
2019-03-19T08:03:24.145Z,64.10
2019-03-19T08:05:53.457Z,64.40
2019-03-19T08:08:22.817Z,65.70
2019-03-19T08:10:52.188Z,65.90
2019-03-19T08:13:21.542Z,65.60
2019-03-19T08:15:51.047Z,66.40
2019-03-19T08:18:20.391Z,66.40
2019-03-19T08:20:49.757Z,66.60
2019-03-19T08:23:19.053Z,65.80
2019-03-19T08:25:48.458Z,65.60
2019-03-19T08:28:17.827Z,65.50
2019-03-19T08:30:47.268Z,64.60
2019-03-19T08:33:16.598Z,64.60
2019-03-19T08:35:45.974Z,64.60
2019-03-19T08:38:15.361Z,65.00
2019-03-19T08:40:44.674Z,65.40
2019-03-19T08:43:14.044Z,65.20
2019-03-19T08:45:43.438Z,64.50
2019-03-19T08:48:12.733Z,64.40
2019-03-19T08:50:42.083Z,64.30
2019-03-19T08:53:12.481Z,63.00
2019-03-19T08:55:41.813Z,63.70
2019-03-19T08:58:11.218Z,63.10
2019-03-19T09:00:40.549Z,63.50
2019-03-19T09:03:09.922Z,64.10
2019-03-19T09:05:39.315Z,63.40
2019-03-19T09:08:08.660Z,62.40
2019-03-19T09:10:38.013Z,62.50
2019-03-19T09:13:07.365Z,61.90
2019-03-19T09:15:37.744Z,61.00
2019-03-19T09:18:07.153Z,60.60
2019-03-19T09:20:36.534Z,59.60
2019-03-19T09:23:05.962Z,59.70
2019-03-19T09:25:35.454Z,59.70
2019-03-19T09:28:04.927Z,56.80
2019-03-19T09:30:34.365Z,56.10
2019-03-19T09:33:03.695Z,55.30
2019-03-19T09:35:32.975Z,55.90
2019-03-19T09:38:02.253Z,55.70
2019-03-19T09:40:31.654Z,56.30
2019-03-19T09:43:00.964Z,55.20
2019-03-19T09:45:30.402Z,53.90
2019-03-19T09:47:59.708Z,54.90
2019-03-19T09:50:29.053Z,55.90
2019-03-19T09:52:58.362Z,55.50
2019-03-19T09:55:27.750Z,54.90
2019-03-19T09:57:57.185Z,55.20
2019-03-19T10:00:26.517Z,55.10
2019-03-19T10:02:55.814Z,54.00
2019-03-19T10:05:25.092Z,53.50
2019-03-19T10:07:55.686Z,52.30
2019-03-19T10:10:25.593Z,52.40
2019-03-19T10:12:55.130Z,51.80
2019-03-19T10:15:24.531Z,51.20
2019-03-19T10:17:54.426Z,50.00
2019-03-19T10:20:23.750Z,49.00
2019-03-19T10:22:53.128Z,49.20
2019-03-19T10:25:22.485Z,49.50
2019-03-19T10:27:51.785Z,49.10
2019-03-19T10:30:21.454Z,50.30
2019-03-19T10:32:50.793Z,49.00
2019-03-19T10:35:21.253Z,47.20
2019-03-19T10:37:50.594Z,47.80
2019-03-19T10:40:19.967Z,48.80
2019-03-19T10:42:49.871Z,49.80
2019-03-19T10:45:19.717Z,46.60
2019-03-19T10:47:49.115Z,47.50
2019-03-19T10:50:19.690Z,49.00
2019-03-19T10:52:50.158Z,46.30
2019-03-19T10:55:19.581Z,46.10
2019-03-19T10:57:48.987Z,47.80
2019-03-19T11:00:21.913Z,46.60
2019-03-19T11:02:51.637Z,43.40
2019-03-19T11:05:21.994Z,43.30
2019-03-19T11:07:51.386Z,44.20
2019-03-19T11:10:21.822Z,44.20
2019-03-19T11:12:51.194Z,43.90
2019-03-19T11:15:20.587Z,44.10
2019-03-19T11:17:49.921Z,43.90
2019-03-19T11:20:19.261Z,46.00
2019-03-19T11:22:48.662Z,44.90
2019-03-19T11:25:18.134Z,47.60
2019-03-19T11:27:47.572Z,49.90
2019-03-19T11:30:21.325Z,47.60
2019-03-19T11:32:50.663Z,47.60
2019-03-19T11:35:20.416Z,46.70
2019-03-19T11:37:49.776Z,45.50
2019-03-19T11:40:20.041Z,46.80
2019-03-19T11:42:49.846Z,48.20
2019-03-19T11:45:19.584Z,49.30
2019-03-19T11:47:48.942Z,48.20
2019-03-19T11:50:20.082Z,45.80
2019-03-19T11:52:50.366Z,47.20
2019-03-19T11:55:20.820Z,46.10
2019-03-19T11:57:50.593Z,45.60
2019-03-19T12:00:45.350Z,45.80
2019-03-19T12:03:16.419Z,46.20
2019-03-19T12:05:46.829Z,45.40
2019-03-19T12:08:16.164Z,45.10
2019-03-19T12:10:45.601Z,41.60
2019-03-19T12:13:15.176Z,42.70
2019-03-19T12:15:44.694Z,44.70
2019-03-19T12:18:14.096Z,43.10
2019-03-19T12:20:43.645Z,44.80
2019-03-19T12:23:13.024Z,44.80
2019-03-19T12:25:43.471Z,43.80
2019-03-19T12:28:12.855Z,44.70
2019-03-19T12:30:42.281Z,45.70
2019-03-19T12:33:12.661Z,45.10
2019-03-19T12:35:42.077Z,45.20
2019-03-19T12:38:11.485Z,42.90
2019-03-19T12:40:40.941Z,44.10
2019-03-19T12:43:10.323Z,45.10
2019-03-19T12:45:40.725Z,43.50
2019-03-19T12:48:10.078Z,42.50
2019-03-19T12:50:39.469Z,43.90
2019-03-19T12:53:08.830Z,47.70
2019-03-19T12:55:38.334Z,52.60
2019-03-19T12:58:08.734Z,46.20
2019-03-19T13:00:38.229Z,42.40
2019-03-19T13:03:07.538Z,40.70
2019-03-19T13:05:36.965Z,40.10
2019-03-19T13:08:06.405Z,39.40
2019-03-19T13:10:35.848Z,38.10
2019-03-19T13:13:05.996Z,38.20
2019-03-19T13:15:35.406Z,36.60
2019-03-19T13:18:04.955Z,36.80
2019-03-19T13:20:34.417Z,35.50
2019-03-19T13:23:03.857Z,35.10
2019-03-19T13:25:33.190Z,36.00
2019-03-19T13:28:02.637Z,36.10
2019-03-19T13:30:32.065Z,36.50
2019-03-19T13:33:01.377Z,35.20
2019-03-19T13:35:30.745Z,36.80
2019-03-19T13:38:00.117Z,36.90
2019-03-19T13:40:29.555Z,36.00
2019-03-19T13:42:58.957Z,35.70
2019-03-19T13:45:28.357Z,34.70
2019-03-19T13:47:57.765Z,33.00
2019-03-19T13:50:27.097Z,34.70
2019-03-19T13:52:56.447Z,36.80
2019-03-19T13:55:25.733Z,34.70
2019-03-19T13:57:55.089Z,36.00
2019-03-19T14:00:24.399Z,37.80
2019-03-19T14:02:53.680Z,37.80
2019-03-19T14:05:23.009Z,39.20
2019-03-19T14:07:52.344Z,39.60
2019-03-19T14:10:21.629Z,38.10
2019-03-19T14:12:51.033Z,38.50
2019-03-19T14:15:20.445Z,39.70
2019-03-19T14:17:50.005Z,40.30
2019-03-19T14:20:19.927Z,42.10
2019-03-19T14:22:49.212Z,43.50
2019-03-19T14:25:18.898Z,43.80
2019-03-19T14:27:48.295Z,43.80
2019-03-19T14:30:18.493Z,44.60
2019-03-19T14:32:47.983Z,44.70
2019-03-19T14:35:18.385Z,45.40
2019-03-19T14:37:47.813Z,45.50
2019-03-19T14:40:17.558Z,44.40
2019-03-19T14:42:47.389Z,45.10
2019-03-19T14:45:17.781Z,45.20
2019-03-19T14:47:47.557Z,43.10
2019-03-19T14:50:16.909Z,42.90
2019-03-19T14:52:46.231Z,43.00
2019-03-19T14:55:15.518Z,42.40
2019-03-19T14:57:44.839Z,43.50
2019-03-19T15:00:16.026Z,44.20
2019-03-19T15:02:45.880Z,45.40
2019-03-19T15:05:15.977Z,44.50
2019-03-19T15:07:45.719Z,43.70
2019-03-19T15:10:15.652Z,44.80
2019-03-19T15:12:44.960Z,45.30
2019-03-19T15:15:16.180Z,43.00
2019-03-19T15:17:46.738Z,43.40
2019-03-19T15:20:17.758Z,45.80
2019-03-19T15:22:47.074Z,46.10
2019-03-19T15:25:16.377Z,45.30
2019-03-19T15:27:45.739Z,46.40
2019-03-19T15:30:16.041Z,47.60
2019-03-19T15:32:45.465Z,48.00
2019-03-19T15:35:14.761Z,48.80
2019-03-19T15:37:44.566Z,49.20
2019-03-19T15:40:14.166Z,50.00
2019-03-19T15:42:44.296Z,50.50
2019-03-19T15:45:13.763Z,50.70
2019-03-19T15:47:43.155Z,51.10
2019-03-19T15:50:15.745Z,51.20
2019-03-19T15:52:45.075Z,51.30
2019-03-19T15:55:14.897Z,51.60
2019-03-19T15:57:44.341Z,52.40
2019-03-19T16:00:14.861Z,52.40
2019-03-19T16:02:44.233Z,52.50
2019-03-19T16:05:14.037Z,52.90
2019-03-19T16:07:43.828Z,53.00
2019-03-19T16:10:13.621Z,52.80
2019-03-19T16:12:42.969Z,53.60
2019-03-19T16:15:13.449Z,53.50
2019-03-19T16:17:43.201Z,53.70
2019-03-19T16:20:13.945Z,53.70
2019-03-19T16:22:43.279Z,53.60
2019-03-19T16:25:13.118Z,54.10
2019-03-19T16:27:42.400Z,54.30
2019-03-19T16:30:13.665Z,54.90
2019-03-19T16:32:43.354Z,55.30
2019-03-19T16:35:12.949Z,55.70
2019-03-19T16:37:42.346Z,56.60
2019-03-19T16:40:14.604Z,56.10
2019-03-19T16:42:43.917Z,56.30
2019-03-19T16:45:14.149Z,56.50
2019-03-19T16:47:43.505Z,56.60
2019-03-19T16:50:14.392Z,56.90
2019-03-19T16:52:43.736Z,57.30
2019-03-19T16:55:13.813Z,57.40
2019-03-19T16:57:43.185Z,57.50
2019-03-19T17:00:17.207Z,58.40
2019-03-19T17:02:46.612Z,58.70
2019-03-19T17:05:16.757Z,58.80
2019-03-19T17:07:46.284Z,59.10
2019-03-19T17:10:17.253Z,59.60
2019-03-19T17:12:46.671Z,59.60
2019-03-19T17:15:16.550Z,59.70
2019-03-19T17:17:45.965Z,59.80
2019-03-19T17:20:16.039Z,59.90
2019-03-19T17:22:45.331Z,60.40
2019-03-19T17:25:19.576Z,59.80
2019-03-19T17:27:49.155Z,59.70
2019-03-19T17:30:23.162Z,59.70
2019-03-19T17:32:52.904Z,60.10
2019-03-19T17:35:22.765Z,60.70
2019-03-19T17:37:52.054Z,60.60
2019-03-19T17:40:21.401Z,60.40
2019-03-19T17:42:50.770Z,60.40
2019-03-19T17:45:20.107Z,60.40
2019-03-19T17:47:49.423Z,59.70
2019-03-19T17:50:19.593Z,59.70
2019-03-19T17:52:49.799Z,59.60
2019-03-19T17:55:19.226Z,59.10
2019-03-19T17:57:48.589Z,59.00
2019-03-19T18:00:23.846Z,58.80
2019-03-19T18:02:53.561Z,59.10
2019-03-19T18:05:22.846Z,59.10
2019-03-19T18:07:52.183Z,58.90
2019-03-19T18:10:21.569Z,59.10
2019-03-19T18:12:50.905Z,59.20
2019-03-19T18:15:20.253Z,59.20
2019-03-19T18:17:49.585Z,58.70
2019-03-19T18:20:19.765Z,58.30
2019-03-19T18:22:49.094Z,57.60
2019-03-19T18:25:18.538Z,58.80
2019-03-19T18:27:48.051Z,59.00
2019-03-19T18:30:17.839Z,59.00
2019-03-19T18:32:47.257Z,59.10
2019-03-19T18:35:16.603Z,58.20
2019-03-19T18:37:45.993Z,58.00
2019-03-19T18:40:15.833Z,58.00
2019-03-19T18:42:45.656Z,58.00
2019-03-19T18:45:15.033Z,57.90
2019-03-19T18:47:44.514Z,57.70
2019-03-19T18:50:14.199Z,57.40
2019-03-19T18:52:43.598Z,57.40
2019-03-19T18:55:13.336Z,58.00
2019-03-19T18:57:42.697Z,58.20
2019-03-19T19:00:13.722Z,59.00
2019-03-19T19:02:49.651Z,58.60
2019-03-19T19:05:14.281Z,58.90
2019-03-19T19:07:43.637Z,58.80
2019-03-19T19:10:14.457Z,58.90
2019-03-19T19:12:44.171Z,59.20
2019-03-19T19:15:14.884Z,59.20
2019-03-19T19:17:44.282Z,59.10
2019-03-19T19:20:14.858Z,59.40
2019-03-19T19:22:44.149Z,60.00
2019-03-19T19:25:14.341Z,60.40
2019-03-19T19:27:43.729Z,59.50
2019-03-19T19:30:15.956Z,58.90
2019-03-19T19:32:47.602Z,58.60
2019-03-19T19:35:17.072Z,58.30
2019-03-19T19:37:47.534Z,57.90
2019-03-19T19:40:16.928Z,58.60
2019-03-19T19:42:46.535Z,61.80
2019-03-19T19:45:15.886Z,61.30
2019-03-19T19:47:45.710Z,60.40
2019-03-19T19:50:15.933Z,59.80
2019-03-19T19:52:45.326Z,58.60
2019-03-19T19:55:15.345Z,57.50
2019-03-19T19:57:45.424Z,57.30
2019-03-19T20:00:16.218Z,57.50
2019-03-19T20:02:46.932Z,57.20
2019-03-19T20:05:16.306Z,56.90
2019-03-19T20:07:45.996Z,55.70
2019-03-19T20:10:16.962Z,56.10
2019-03-19T20:12:46.390Z,55.60
2019-03-19T20:15:15.881Z,55.20
2019-03-19T20:17:45.363Z,55.20
2019-03-19T20:20:16.286Z,55.60
2019-03-19T20:22:45.621Z,55.40
2019-03-19T20:25:14.961Z,55.40
2019-03-19T20:27:44.306Z,56.10
2019-03-19T20:30:18.358Z,57.10
2019-03-19T20:32:47.769Z,56.60
2019-03-19T20:35:17.122Z,56.00
2019-03-19T20:37:47.620Z,56.10
2019-03-19T20:40:17.589Z,56.40
2019-03-19T20:42:46.900Z,56.50
2019-03-19T20:45:16.757Z,56.80
2019-03-19T20:47:46.074Z,56.80
2019-03-19T20:50:23.802Z,57.00
2019-03-19T20:52:53.234Z,57.00
2019-03-19T20:55:23.031Z,57.00
2019-03-19T20:57:52.393Z,56.80
2019-03-19T21:00:21.789Z,57.00
2019-03-19T21:02:51.138Z,56.80
2019-03-19T21:05:20.523Z,56.80
2019-03-19T21:07:49.997Z,57.10
2019-03-19T21:10:20.049Z,57.20
2019-03-19T21:12:50.906Z,57.00
2019-03-19T21:15:21.971Z,57.00
2019-03-19T21:17:51.245Z,56.90
2019-03-19T21:20:21.161Z,56.70
2019-03-19T21:22:50.586Z,56.50
2019-03-19T21:25:19.914Z,56.50
2019-03-19T21:27:49.272Z,56.40
2019-03-19T21:30:18.807Z,56.40
2019-03-19T21:32:48.505Z,56.40
2019-03-19T21:35:20.401Z,56.30
2019-03-19T21:37:50.248Z,56.20
2019-03-19T21:40:19.942Z,55.90
2019-03-19T21:42:49.752Z,56.20
2019-03-19T21:45:19.178Z,56.20
2019-03-19T21:47:48.457Z,56.20
2019-03-19T21:50:17.816Z,56.20
2019-03-19T21:52:47.161Z,56.40
2019-03-19T21:55:16.489Z,56.80
2019-03-19T21:57:46.272Z,57.20
2019-03-19T22:00:16.777Z,57.10
2019-03-19T22:02:46.242Z,56.70
2019-03-19T22:05:16.139Z,56.80
2019-03-19T22:07:45.587Z,57.00
2019-03-19T22:10:15.313Z,56.60
2019-03-19T22:12:44.921Z,56.70
2019-03-19T22:15:16.075Z,56.80
2019-03-19T22:17:45.429Z,56.80
2019-03-19T22:20:15.849Z,57.00
2019-03-19T22:22:45.517Z,56.90
2019-03-19T22:25:14.906Z,57.10
2019-03-19T22:27:44.421Z,57.50
2019-03-19T22:30:15.217Z,57.70
2019-03-19T22:32:44.729Z,57.90
2019-03-19T22:35:14.081Z,58.00
2019-03-19T22:37:43.973Z,58.20
2019-03-19T22:40:14.597Z,58.10
2019-03-19T22:42:43.917Z,58.20
2019-03-19T22:45:14.391Z,58.20
2019-03-19T22:47:43.782Z,58.00
2019-03-19T22:50:13.763Z,58.20
2019-03-19T22:52:43.551Z,58.20
2019-03-19T22:55:13.395Z,58.40
2019-03-19T22:57:42.826Z,58.80
2019-03-19T23:00:23.206Z,59.40
2019-03-19T23:02:52.494Z,59.60
2019-03-19T23:05:22.526Z,60.10
2019-03-19T23:07:51.817Z,61.00
2019-03-19T23:10:21.151Z,61.50
2019-03-19T23:12:50.463Z,61.60
2019-03-19T23:15:19.814Z,62.00
2019-03-19T23:17:49.159Z,61.80
2019-03-19T23:20:18.506Z,61.80
2019-03-19T23:22:47.858Z,62.20
2019-03-19T23:25:17.434Z,62.50
2019-03-19T23:27:46.792Z,62.40
2019-03-19T23:30:16.145Z,62.50
2019-03-19T23:32:45.477Z,62.80
2019-03-19T23:35:15.127Z,63.10
2019-03-19T23:37:44.455Z,63.50
2019-03-19T23:40:13.706Z,63.60
2019-03-19T23:42:44.363Z,63.70
2019-03-19T23:45:13.723Z,63.80
2019-03-19T23:47:43.166Z,64.20
2019-03-19T23:50:12.773Z,64.50
2019-03-19T23:52:42.508Z,64.70
2019-03-19T23:55:12.266Z,64.70
2019-03-19T23:57:41.605Z,64.80
